createdAt,value
2022-10-14T00:03:51.618Z,12.50
2022-10-14T00:08:36.804Z,12.50
2022-10-14T00:13:20.249Z,12.50
2022-10-14T00:18:03.712Z,12.50
2022-10-14T00:22:47.173Z,12.50
2022-10-14T00:27:31.970Z,12.60
2022-10-14T00:32:15.762Z,12.50
2022-10-14T00:36:59.335Z,12.60
2022-10-14T00:41:43.165Z,12.60
2022-10-14T00:46:30.524Z,12.60
2022-10-14T00:51:14.609Z,12.60
2022-10-14T00:55:58.017Z,12.60
2022-10-14T01:00:41.984Z,12.60
2022-10-14T01:05:35.298Z,12.50
2022-10-14T01:10:31.206Z,12.50
2022-10-14T01:15:23.783Z,12.60
2022-10-14T01:20:27.895Z,12.60
2022-10-14T01:25:20.897Z,12.60
2022-10-14T01:30:12.265Z,12.50
2022-10-14T01:35:02.779Z,12.50
2022-10-14T01:39:49.725Z,12.40
2022-10-14T01:44:36.292Z,12.50
2022-10-14T01:49:28.383Z,12.40
2022-10-14T01:54:16.337Z,12.40
2022-10-14T01:59:01.056Z,12.40
2022-10-14T02:03:46.652Z,12.40
2022-10-14T02:08:42.817Z,12.40
2022-10-14T02:13:38.773Z,12.40
2022-10-14T02:18:30.390Z,12.30
2022-10-14T02:23:17.232Z,12.30
2022-10-14T02:28:03.050Z,12.30
2022-10-14T02:32:47.747Z,12.30
2022-10-14T02:37:32.588Z,12.30
2022-10-14T02:42:16.170Z,12.30
2022-10-14T02:47:01.054Z,12.30
2022-10-14T02:51:44.530Z,12.30
2022-10-14T02:56:27.958Z,12.40
2022-10-14T03:01:11.850Z,12.40
2022-10-14T03:05:56.798Z,12.40
2022-10-14T03:10:40.295Z,12.40
2022-10-14T03:15:24.025Z,12.40
2022-10-14T03:20:08.578Z,12.40
2022-10-14T03:24:53.417Z,12.40
2022-10-14T03:29:37.032Z,12.40
2022-10-14T03:34:20.589Z,12.30
2022-10-14T03:39:04.172Z,12.30
2022-10-14T03:43:49.383Z,12.30
2022-10-14T03:48:32.855Z,12.30
2022-10-14T03:53:16.384Z,12.20
2022-10-14T03:57:59.894Z,12.20
2022-10-14T04:02:44.904Z,12.10
2022-10-14T04:07:28.303Z,12.00
2022-10-14T04:12:11.815Z,12.10
2022-10-14T04:16:55.232Z,12.10
2022-10-14T04:21:40.037Z,12.00
2022-10-14T04:26:23.479Z,12.00
2022-10-14T04:31:07.173Z,12.00
2022-10-14T04:35:50.637Z,12.00
2022-10-14T04:40:35.526Z,12.00
2022-10-14T04:45:19.027Z,12.00
2022-10-14T04:50:02.625Z,12.10
2022-10-14T04:54:52.258Z,12.20
2022-10-14T04:59:37.193Z,12.10
2022-10-14T05:04:20.792Z,12.20
2022-10-14T05:09:04.645Z,12.30
2022-10-14T05:13:48.102Z,12.30
2022-10-14T05:18:35.105Z,12.30
2022-10-14T05:23:20.665Z,12.30
2022-10-14T05:28:04.408Z,12.30
2022-10-14T05:32:47.901Z,12.20
2022-10-14T05:37:32.953Z,12.30
2022-10-14T05:42:16.399Z,12.20
2022-10-14T05:47:02.276Z,12.20
2022-10-14T05:51:45.804Z,12.20
2022-10-14T05:56:30.660Z,12.20
2022-10-14T06:01:14.136Z,12.30
2022-10-14T06:05:57.965Z,12.40
2022-10-14T06:10:41.405Z,12.40
2022-10-14T06:15:26.243Z,12.40
2022-10-14T06:20:10.700Z,12.50
2022-10-14T06:24:54.206Z,12.50
2022-10-14T06:29:38.844Z,12.60
2022-10-14T06:34:24.940Z,12.60
2022-10-14T06:39:08.567Z,12.70
2022-10-14T06:43:52.053Z,12.70
2022-10-14T06:48:35.575Z,12.80
2022-10-14T06:53:20.869Z,12.90
2022-10-14T06:58:04.449Z,12.90
2022-10-14T07:02:48.052Z,13.00
2022-10-14T07:07:32.538Z,13.10
2022-10-14T07:12:17.851Z,13.10
2022-10-14T07:17:01.458Z,13.10
2022-10-14T07:21:46.734Z,13.10
2022-10-14T07:26:32.271Z,13.10
2022-10-14T07:31:17.421Z,13.10
2022-10-14T07:36:03.312Z,13.20
2022-10-14T07:40:46.892Z,13.40
2022-10-14T07:45:35.418Z,13.40
2022-10-14T07:50:20.972Z,13.40
2022-10-14T07:55:05.110Z,13.40
2022-10-14T07:59:48.803Z,13.60
2022-10-14T08:04:32.573Z,13.80
2022-10-14T08:09:18.475Z,13.90
2022-10-14T08:14:02.407Z,14.00
2022-10-14T08:18:47.312Z,14.10
2022-10-14T08:23:33.224Z,14.20
2022-10-14T08:28:18.144Z,14.40
2022-10-14T08:33:01.618Z,14.50
2022-10-14T08:37:45.053Z,14.50
2022-10-14T08:42:36.958Z,14.30
2022-10-14T08:47:27.094Z,14.30
2022-10-14T08:52:14.127Z,14.50
2022-10-14T08:56:58.042Z,14.60
2022-10-14T09:01:50.795Z,14.50
2022-10-14T09:06:37.494Z,14.90
2022-10-14T09:11:22.924Z,15.20
2022-10-14T09:16:11.237Z,15.20
2022-10-14T09:20:56.590Z,15.10
2022-10-14T09:25:46.701Z,15.30
2022-10-14T09:30:34.920Z,15.10
2022-10-14T09:35:24.554Z,15.50
2022-10-14T09:40:20.080Z,15.20
2022-10-14T09:45:26.854Z,15.00
2022-10-14T09:50:36.341Z,14.90
2022-10-14T09:55:48.060Z,14.90
2022-10-14T10:00:35.954Z,14.70
2022-10-14T10:05:27.409Z,14.80
2022-10-14T10:10:20.968Z,14.80
2022-10-14T10:15:06.737Z,14.90
2022-10-14T10:19:54.323Z,14.90
2022-10-14T10:24:37.787Z,14.80
2022-10-14T10:29:28.398Z,14.90
2022-10-14T10:34:32.771Z,14.70
2022-10-14T10:39:25.929Z,14.70
2022-10-14T10:44:25.842Z,14.70
2022-10-14T10:49:22.888Z,15.00
2022-10-14T10:54:18.083Z,15.10
2022-10-14T10:59:30.557Z,15.10
2022-10-14T11:04:31.223Z,15.30
2022-10-14T11:09:37.080Z,15.50
2022-10-14T11:14:50.703Z,15.60
2022-10-14T11:19:40.784Z,15.50
2022-10-14T11:24:29.970Z,15.80
2022-10-14T11:29:28.934Z,16.10
2022-10-14T11:34:35.009Z,16.50
2022-10-14T11:39:40.502Z,17.70
2022-10-14T11:44:30.075Z,18.90
2022-10-14T11:49:20.512Z,19.40
2022-10-14T11:54:12.821Z,19.50
2022-10-14T11:58:58.729Z,19.70
2022-10-14T12:03:52.856Z,19.90
2022-10-14T12:08:46.269Z,19.90
2022-10-14T12:13:35.949Z,19.90
2022-10-14T12:18:20.668Z,19.10
2022-10-14T12:23:06.663Z,19.30
2022-10-14T12:27:52.410Z,19.50
2022-10-14T12:32:57.376Z,19.50
2022-10-14T12:37:52.270Z,19.80
2022-10-14T12:42:38.140Z,19.70
2022-10-14T12:47:24.184Z,19.20
2022-10-14T12:52:10.616Z,18.20
2022-10-14T12:57:00.060Z,17.80
2022-10-14T13:01:45.516Z,17.80
2022-10-14T13:06:35.634Z,17.80
2022-10-14T13:11:28.984Z,17.00
2022-10-14T13:16:32.888Z,17.00
2022-10-14T13:21:32.482Z,17.20
2022-10-14T13:26:25.635Z,17.20
2022-10-14T13:31:14.610Z,17.20
2022-10-14T13:36:09.344Z,17.20
2022-10-14T13:40:55.292Z,17.20
2022-10-14T13:45:45.606Z,17.00
2022-10-14T13:50:36.727Z,16.80
2022-10-14T13:55:23.873Z,16.90
2022-10-14T14:00:44.212Z,16.90
2022-10-14T14:05:33.418Z,17.10
2022-10-14T14:10:20.944Z,16.80
2022-10-14T14:15:05.332Z,16.80
2022-10-14T14:19:49.185Z,17.10
2022-10-14T14:24:35.080Z,17.00
2022-10-14T14:29:20.462Z,16.80
2022-10-14T14:34:03.969Z,16.60
2022-10-14T14:38:55.960Z,16.10
2022-10-14T14:43:47.372Z,16.10
2022-10-14T14:48:38.644Z,16.00
2022-10-14T14:53:24.084Z,15.70
2022-10-14T14:58:21.517Z,15.50
2022-10-14T15:03:06.708Z,15.50
2022-10-14T15:07:51.333Z,15.40
2022-10-14T15:12:39.844Z,15.30
2022-10-14T15:17:29.597Z,15.10
2022-10-14T15:22:31.468Z,15.00
2022-10-14T15:27:46.614Z,15.10
2022-10-14T15:32:30.657Z,14.80
2022-10-14T15:37:15.840Z,14.80
2022-10-14T15:41:59.382Z,14.60
2022-10-14T15:47:02.925Z,14.30
2022-10-14T15:51:46.393Z,14.30
2022-10-14T15:56:31.778Z,14.20
2022-10-14T16:01:19.962Z,14.30
2022-10-14T16:06:03.498Z,14.20
2022-10-14T16:10:48.936Z,14.20
2022-10-14T16:15:37.269Z,14.20
2022-10-14T16:20:21.590Z,14.20
2022-10-14T16:25:05.624Z,14.20
2022-10-14T16:29:49.179Z,14.30
2022-10-14T16:34:34.071Z,14.30
2022-10-14T16:39:18.426Z,14.20
2022-10-14T16:44:01.947Z,14.10
2022-10-14T16:48:45.508Z,14.10
2022-10-14T16:53:45.247Z,14.00
2022-10-14T16:58:29.849Z,14.00
2022-10-14T17:03:13.430Z,13.90
2022-10-14T17:07:57.149Z,13.90
2022-10-14T17:12:42.490Z,13.90
2022-10-14T17:17:26.326Z,13.90
2022-10-14T17:22:10.176Z,13.80
2022-10-14T17:26:54.173Z,13.80
2022-10-14T17:31:39.271Z,13.90
2022-10-14T17:36:24.972Z,13.80
2022-10-14T17:41:11.097Z,13.80
2022-10-14T17:46:02.032Z,13.70
2022-10-14T17:50:51.126Z,13.80
2022-10-14T17:55:37.350Z,13.80
2022-10-14T18:00:21.955Z,13.70
2022-10-14T18:05:07.909Z,13.70
2022-10-14T18:09:53.834Z,13.80
2022-10-14T18:14:38.649Z,13.70
2022-10-14T18:19:23.400Z,13.70
2022-10-14T18:24:09.819Z,13.60
2022-10-14T18:28:57.756Z,13.60
2022-10-14T18:33:43.380Z,13.70
2022-10-14T18:38:27.284Z,13.70
2022-10-14T18:43:12.574Z,13.70
2022-10-14T18:48:01.092Z,13.80
2022-10-14T18:52:45.673Z,13.80
2022-10-14T18:57:30.963Z,13.70
2022-10-14T19:02:17.106Z,13.70
2022-10-14T19:07:02.765Z,13.70
2022-10-14T19:11:48.784Z,13.70
2022-10-14T19:16:34.522Z,13.60
2022-10-14T19:21:22.890Z,13.60
2022-10-14T19:26:10.140Z,13.60
2022-10-14T19:30:54.632Z,13.60
2022-10-14T19:35:40.756Z,13.60
2022-10-14T19:40:25.312Z,13.60
2022-10-14T19:45:12.295Z,13.60
2022-10-14T19:49:56.656Z,13.60
2022-10-14T19:54:41.112Z,13.60
2022-10-14T19:59:24.987Z,13.50
2022-10-14T20:04:10.307Z,13.50
2022-10-14T20:08:54.009Z,13.50
2022-10-14T20:13:38.878Z,13.50
2022-10-14T20:18:22.607Z,13.60
2022-10-14T20:23:08.076Z,13.60
2022-10-14T20:27:51.961Z,13.60
2022-10-14T20:32:35.445Z,13.50
2022-10-14T20:37:23.010Z,13.50
2022-10-14T20:42:10.914Z,13.50
2022-10-14T20:46:54.609Z,13.50
2022-10-14T20:51:38.301Z,13.40
2022-10-14T20:56:21.902Z,13.50
2022-10-14T21:01:08.792Z,13.40
2022-10-14T21:05:52.315Z,13.40
2022-10-14T21:10:36.163Z,13.30
2022-10-14T21:15:20.383Z,13.40
2022-10-14T21:20:06.873Z,13.40
2022-10-14T21:24:51.142Z,13.30
2022-10-14T21:29:35.258Z,13.30
2022-10-14T21:34:18.845Z,13.30
2022-10-14T21:39:07.560Z,13.20
2022-10-14T21:43:52.042Z,13.20
2022-10-14T21:48:35.871Z,13.30
2022-10-14T21:53:19.433Z,13.20
2022-10-14T21:58:04.317Z,13.30
2022-10-14T22:02:47.783Z,13.30
2022-10-14T22:07:31.325Z,13.30
2022-10-14T22:12:15.080Z,13.30
2022-10-14T22:16:59.975Z,13.20
2022-10-14T22:21:45.162Z,13.20
2022-10-14T22:26:30.605Z,13.20
2022-10-14T22:31:16.144Z,13.20
2022-10-14T22:36:09.497Z,13.20
2022-10-14T22:40:53.021Z,13.20
2022-10-14T22:45:36.530Z,13.20
2022-10-14T22:50:20.019Z,13.20
2022-10-14T22:55:05.197Z,13.10
2022-10-14T22:59:48.775Z,13.10
2022-10-14T23:04:32.313Z,13.20
2022-10-14T23:09:16.135Z,13.20
2022-10-14T23:14:04.411Z,13.10
2022-10-14T23:18:51.231Z,13.20
2022-10-14T23:23:34.790Z,13.10
2022-10-14T23:28:18.397Z,13.20
2022-10-14T23:33:03.588Z,13.30
2022-10-14T23:37:47.184Z,13.20
2022-10-14T23:42:30.845Z,13.10
2022-10-14T23:47:14.395Z,13.30
2022-10-14T23:51:59.473Z,13.30
2022-10-14T23:56:42.944Z,13.20
